Time;durP1;ratioP1;P1;durP2;ratioP2;P2;SDS_P1;SDS_P2;PMS_P1;PMS_P2;Temp;Humidity;BMP_temperature;BMP_pressure;BME280_temperature;BME280_humidity;BME280_pressure;Samples;Min_cycle;Max_cycle;Signal;HPM_P1;HPM_P2
2022/03/26 00:02:10;;;;;;;;;;;6.90;92.70;;;;;;5088958;28;19927;-92
2022/03/26 00:04:48;;;;;;;;;;;7.00;92.80;;;;;;5088349;28;19984;-92
2022/03/26 00:07:15;;;;;;;;;;;6.80;92.90;;;;;;5088616;28;19948;-92
2022/03/26 00:09:41;;;;;;;;;;;6.80;92.90;;;;;;5088438;28;19921;-93
2022/03/26 00:12:10;;;;;;;;;;;6.80;93.10;;;;;;5089028;28;19921;-92
2022/03/26 00:14:37;;;;;;;;;;;6.70;93.30;;;;;;5088852;28;20275;-92
2022/03/26 00:17:04;;;;;;;;;;;6.60;93.40;;;;;;5088884;28;20119;-92
2022/03/26 00:19:30;;;;;;;;;;;6.50;93.50;;;;;;5088936;28;20237;-92
2022/03/26 00:21:57;;;;;;;;;;;6.50;93.60;;;;;;5088764;28;19981;-92
2022/03/26 00:24:24;;;;;;;;;;;6.50;93.60;;;;;;5088188;28;19988;-92
2022/03/26 00:26:52;;;;;;;;;;;6.40;93.70;;;;;;5088684;28;20215;-93
2022/03/26 00:29:20;;;;;;;;;;;6.40;93.70;;;;;;5089610;28;19927;-93
2022/03/26 00:31:47;;;;;;;;;;;6.30;93.80;;;;;;5089405;28;19924;-92
2022/03/26 00:34:14;;;;;;;;;;;6.20;93.80;;;;;;5088270;28;19980;-92
2022/03/26 00:36:41;;;;;;;;;;;6.30;94.00;;;;;;5088118;28;19928;-93
2022/03/26 00:39:07;;;;;;;;;;;6.20;93.90;;;;;;5089663;28;19979;-92
2022/03/26 00:41:34;;;;;;;;;;;6.10;93.90;;;;;;5089703;28;19920;-92
2022/03/26 00:44:02;;;;;;;;;;;6.00;93.90;;;;;;5089433;28;19920;-92
2022/03/26 00:46:30;;;;;;;;;;;6.30;94.20;;;;;;5087559;28;19951;-92
2022/03/26 00:48:57;;;;;;;;;;;5.80;94.10;;;;;;5088508;28;19920;-92
2022/03/26 00:51:24;;;;;;;;;;;5.90;94.50;;;;;;5087651;28;19921;-92
2022/03/26 00:53:50;;;;;;;;;;;5.80;94.80;;;;;;5088245;28;19992;-93
2022/03/26 00:56:17;;;;;;;;;;;5.90;95.30;;;;;;5088341;28;20358;-92
2022/03/26 00:58:44;;;;;;;;;;;5.70;95.40;;;;;;5087914;28;19989;-92
2022/03/26 01:01:12;;;;;;;;;;;5.60;95.50;;;;;;5087738;28;20211;-92
2022/03/26 01:03:40;;;;;;;;;;;5.60;95.90;;;;;;5087780;28;20127;-92
2022/03/26 01:06:06;;;;;;;;;;;5.60;96.00;;;;;;5088906;28;19939;-92
2022/03/26 01:08:33;;;;;;;;;;;5.60;96.40;;;;;;5088942;28;19988;-91
2022/03/26 01:11:00;;;;;;;;;;;5.40;96.50;;;;;;5089155;28;19976;-92
2022/03/26 01:13:27;;;;;;;;;;;5.40;96.80;;;;;;5088872;28;19926;-92
2022/03/26 01:15:54;;;;;;;;;;;5.40;97.00;;;;;;5088736;28;20115;-92
2022/03/26 01:18:22;;;;;;;;;;;5.40;97.10;;;;;;5090339;28;19927;-91
2022/03/26 01:20:50;;;;;;;;;;;5.40;97.30;;;;;;5090846;28;19940;-91
2022/03/26 01:23:19;;;;;;;;;;;5.40;97.50;;;;;;5094809;28;19983;-92
2022/03/26 01:25:46;;;;;;;;;;;5.40;97.60;;;;;;5088300;28;19920;-92
2022/03/26 01:28:12;;;;;;;;;;;5.40;97.60;;;;;;5087280;28;19920;-92
2022/03/26 01:30:40;;;;;;;;;;;5.30;97.70;;;;;;5087975;28;19921;-93
2022/03/26 01:33:06;;;;;;;;;;;5.30;97.80;;;;;;5087152;28;19926;-92
2022/03/26 01:35:33;;;;;;;;;;;5.30;97.70;;;;;;5087572;28;19984;-92
2022/03/26 01:38:04;;;;;;;;;;;5.20;97.70;;;;;;5086969;28;20182;-91
2022/03/26 01:40:31;;;;;;;;;;;5.10;97.70;;;;;;5086315;28;19988;-92
2022/03/26 01:42:59;;;;;;;;;;;5.00;97.80;;;;;;5086090;28;19996;-92
2022/03/26 01:45:27;;;;;;;;;;;4.90;97.90;;;;;;5086601;28;19989;-92
2022/03/26 01:47:53;;;;;;;;;;;4.90;98.10;;;;;;5085820;28;20269;-92
2022/03/26 01:50:20;;;;;;;;;;;4.90;98.20;;;;;;5086401;28;19920;-92
2022/03/26 01:52:47;;;;;;;;;;;4.90;98.60;;;;;;5086093;28;19988;-92
2022/03/26 01:55:15;;;;;;;;;;;4.90;98.90;;;;;;5085246;28;19928;-91
2022/03/26 01:57:42;;;;;;;;;;;4.90;99.20;;;;;;5085441;28;19920;-92
2022/03/26 02:00:09;;;;;;;;;;;4.90;99.20;;;;;;5085289;28;19943;-91
2022/03/26 02:02:37;;;;;;;;;;;4.80;99.20;;;;;;5066612;28;22442;-92
2022/03/26 02:05:04;;;;;;;;;;;4.80;99.60;;;;;;5089245;28;19935;-90
2022/03/26 02:07:32;;;;;;;;;;;4.70;99.70;;;;;;5087919;28;19991;-91
2022/03/26 02:09:58;;;;;;;;;;;4.70;99.90;;;;;;5085224;28;19920;-90
2022/03/26 02:12:27;;;;;;;;;;;4.60;99.90;;;;;;5085269;28;19920;-92
2022/03/26 02:14:54;;;;;;;;;;;4.60;99.90;;;;;;5085742;28;19988;-92
2022/03/26 02:17:21;;;;;;;;;;;4.50;99.90;;;;;;5085745;28;20017;-92
2022/03/26 02:19:50;;;;;;;;;;;4.50;99.90;;;;;;5085379;28;19987;-91
2022/03/26 02:22:16;;;;;;;;;;;4.40;99.90;;;;;;5085339;28;19958;-92
2022/03/26 02:24:43;;;;;;;;;;;4.40;99.90;;;;;;5084945;28;19920;-91
2022/03/26 02:27:10;;;;;;;;;;;4.30;99.90;;;;;;5085191;28;19920;-91
2022/03/26 02:29:37;;;;;;;;;;;4.30;99.90;;;;;;5085465;28;19926;-92
2022/03/26 02:32:04;;;;;;;;;;;4.30;99.90;;;;;;5085324;28;19996;-91
2022/03/26 02:34:30;;;;;;;;;;;4.30;99.90;;;;;;5085152;28;19979;-92
2022/03/26 02:36:59;;;;;;;;;;;4.20;99.90;;;;;;5084994;28;19943;-91
2022/03/26 02:39:25;;;;;;;;;;;4.20;99.90;;;;;;5064427;28;19984;-91
2022/03/26 02:41:52;;;;;;;;;;;4.20;99.90;;;;;;5064867;28;19920;-91
2022/03/26 02:44:19;;;;;;;;;;;4.20;99.90;;;;;;5064679;28;20216;-91
2022/03/26 02:46:45;;;;;;;;;;;4.20;99.90;;;;;;5065214;28;19921;-91
2022/03/26 02:49:12;;;;;;;;;;;4.10;99.90;;;;;;5064580;28;19921;-92
2022/03/26 02:51:39;;;;;;;;;;;4.00;99.90;;;;;;5068186;28;19924;-91
2022/03/26 02:54:18;;;;;;;;;;;3.90;99.90;;;;;;5083946;28;19920;-91
2022/03/26 02:56:45;;;;;;;;;;;3.80;99.90;;;;;;5084446;28;19920;-92
2022/03/26 02:59:11;;;;;;;;;;;3.70;99.90;;;;;;5084658;28;19983;-92
2022/03/26 03:01:38;;;;;;;;;;;3.60;99.90;;;;;;5085200;28;19920;-91
2022/03/26 03:04:05;;;;;;;;;;;3.50;99.90;;;;;;5084446;28;19921;-91
2022/03/26 03:06:32;;;;;;;;;;;3.50;99.90;;;;;;5084600;28;20207;-91
2022/03/26 03:08:59;;;;;;;;;;;3.50;99.90;;;;;;5083948;28;20135;-92
2022/03/26 03:11:27;;;;;;;;;;;3.50;99.90;;;;;;5084188;28;19989;-91
2022/03/26 03:13:53;;;;;;;;;;;3.50;99.90;;;;;;5097399;22;19920;-70
2022/03/26 03:16:20;;;;;;;;;;;3.50;99.90;;;;;;5082628;28;19943;-69
2022/03/26 03:18:47;;;;;;;;;;;3.40;99.90;;;;;;5082628;28;19927;-71
2022/03/26 03:21:13;;;;;;;;;;;3.40;99.90;;;;;;5082888;28;19947;-70
2022/03/26 03:23:40;;;;;;;;;;;3.40;99.90;;;;;;5082651;28;19921;-70
2022/03/26 03:26:06;;;;;;;;;;;3.40;99.90;;;;;;5082617;28;19927;-69
2022/03/26 03:28:34;;;;;;;;;;;3.50;99.90;;;;;;5082942;28;19979;-71
2022/03/26 03:31:01;;;;;;;;;;;3.40;99.90;;;;;;5082906;28;19920;-69
2022/03/26 03:33:28;;;;;;;;;;;3.40;99.90;;;;;;5082926;28;19983;-69
2022/03/26 03:35:55;;;;;;;;;;;3.30;99.90;;;;;;5082133;28;19955;-69
2022/03/26 03:38:22;;;;;;;;;;;3.30;99.90;;;;;;5082347;28;19928;-71
2022/03/26 03:40:48;;;;;;;;;;;3.30;99.90;;;;;;5083278;28;19963;-69
2022/03/26 03:43:15;;;;;;;;;;;3.20;99.90;;;;;;5082441;28;20232;-69
2022/03/26 03:45:43;;;;;;;;;;;3.20;99.90;;;;;;5081975;28;20146;-70
2022/03/26 03:48:10;;;;;;;;;;;3.10;99.90;;;;;;5082543;28;19928;-69
2022/03/26 03:50:36;;;;;;;;;;;3.10;99.90;;;;;;5082379;28;19920;-69
2022/03/26 03:53:03;;;;;;;;;;;3.00;99.90;;;;;;5082172;28;19921;-70
2022/03/26 03:55:29;;;;;;;;;;;3.00;99.90;;;;;;5081780;28;19920;-70
2022/03/26 03:57:56;;;;;;;;;;;3.00;99.90;;;;;;5082525;28;19921;-70
2022/03/26 04:00:23;;;;;;;;;;;3.00;99.90;;;;;;5082709;28;19942;-70
2022/03/26 04:02:52;;;;;;;;;;;2.90;99.90;;;;;;5082419;28;20023;-69
2022/03/26 04:05:19;;;;;;;;;;;3.00;99.90;;;;;;5082155;28;20163;-70
2022/03/26 04:07:46;;;;;;;;;;;3.00;99.90;;;;;;5082533;28;19928;-70
2022/03/26 04:10:13;;;;;;;;;;;2.90;99.90;;;;;;5082196;28;19927;-70
2022/03/26 04:12:40;;;;;;;;;;;2.90;99.90;;;;;;5085579;28;19935;-70
2022/03/26 04:15:08;;;;;;;;;;;2.90;99.90;;;;;;5085829;28;20235;-70
2022/03/26 04:17:35;;;;;;;;;;;2.80;99.90;;;;;;5086067;28;19920;-69
2022/03/26 04:20:03;;;;;;;;;;;2.80;99.90;;;;;;5085898;28;19921;-69
2022/03/26 04:22:30;;;;;;;;;;;2.80;99.90;;;;;;5085523;28;19932;-70
2022/03/26 04:24:56;;;;;;;;;;;2.70;99.90;;;;;;5086001;28;20116;-70
2022/03/26 04:27:23;;;;;;;;;;;2.70;99.90;;;;;;5085130;28;20266;-70
2022/03/26 04:29:50;;;;;;;;;;;2.60;99.90;;;;;;5085757;28;19924;-70
2022/03/26 04:32:17;;;;;;;;;;;2.50;99.90;;;;;;5084353;28;20112;-70
2022/03/26 04:34:43;;;;;;;;;;;2.50;99.90;;;;;;5085883;28;19921;-69
2022/03/26 04:37:11;;;;;;;;;;;2.50;99.90;;;;;;5084750;28;19927;-70
2022/03/26 04:39:38;;;;;;;;;;;2.50;99.90;;;;;;5085717;28;20160;-70
2022/03/26 04:42:05;;;;;;;;;;;2.50;99.90;;;;;;5083077;28;19920;-70
2022/03/26 04:44:31;;;;;;;;;;;2.50;99.90;;;;;;5084691;28;19920;-71
2022/03/26 04:46:58;;;;;;;;;;;2.50;99.90;;;;;;5084956;28;19926;-69
2022/03/26 04:49:25;;;;;;;;;;;2.40;99.90;;;;;;5085115;28;19927;-70
2022/03/26 04:51:51;;;;;;;;;;;2.30;99.90;;;;;;5084983;28;19928;-69
2022/03/26 04:54:19;;;;;;;;;;;2.30;99.90;;;;;;5085431;28;19927;-70
2022/03/26 04:56:46;;;;;;;;;;;2.20;99.90;;;;;;5084776;28;19920;-69
2022/03/26 04:59:12;;;;;;;;;;;2.20;99.90;;;;;;5084845;28;19928;-69
2022/03/26 05:01:41;;;;;;;;;;;2.10;99.90;;;;;;5084552;28;20226;-69
2022/03/26 05:04:07;;;;;;;;;;;2.10;99.90;;;;;;5085071;28;19920;-70
2022/03/26 05:06:34;;;;;;;;;;;2.00;99.90;;;;;;5084519;28;20123;-70
2022/03/26 05:09:00;;;;;;;;;;;2.00;99.90;;;;;;5084217;28;19927;-69
2022/03/26 05:11:28;;;;;;;;;;;2.00;99.90;;;;;;5084569;28;19920;-70
2022/03/26 05:13:55;;;;;;;;;;;2.00;99.90;;;;;;5096791;28;19955;-70
2022/03/26 05:16:22;;;;;;;;;;;2.00;99.90;;;;;;5104272;28;19920;-70
2022/03/26 05:18:48;;;;;;;;;;;2.00;99.90;;;;;;5105051;28;20100;-70
2022/03/26 05:21:15;;;;;;;;;;;2.00;99.90;;;;;;5104405;28;20149;-70
2022/03/26 05:23:41;;;;;;;;;;;2.00;99.90;;;;;;5104339;28;19951;-70
2022/03/26 05:26:08;;;;;;;;;;;2.00;99.90;;;;;;5103606;28;19920;-70
2022/03/26 05:28:36;;;;;;;;;;;2.00;99.90;;;;;;5104583;28;19920;-70
2022/03/26 05:31:02;;;;;;;;;;;2.00;99.90;;;;;;5104822;28;19920;-70
2022/03/26 05:33:29;;;;;;;;;;;2.00;99.90;;;;;;5104531;28;19919;-69
2022/03/26 05:35:56;;;;;;;;;;;2.00;99.90;;;;;;5103727;28;19924;-70
2022/03/26 05:38:22;;;;;;;;;;;2.00;99.90;;;;;;5104261;28;19926;-70
2022/03/26 05:40:49;;;;;;;;;;;2.00;99.90;;;;;;5104582;28;19920;-70
2022/03/26 05:43:16;;;;;;;;;;;2.00;99.90;;;;;;5104427;28;20212;-69
2022/03/26 05:45:44;;;;;;;;;;;2.00;99.90;;;;;;5104081;28;19926;-69
2022/03/26 05:48:10;;;;;;;;;;;2.00;99.90;;;;;;5104569;28;19965;-70
2022/03/26 05:50:37;;;;;;;;;;;2.00;99.90;;;;;;5104387;28;19920;-70
2022/03/26 05:53:04;;;;;;;;;;;2.00;99.90;;;;;;5104173;28;19926;-70
2022/03/26 05:55:30;;;;;;;;;;;2.00;99.90;;;;;;5103487;28;19924;-68
2022/03/26 05:57:57;;;;;;;;;;;2.00;99.90;;;;;;5104196;28;19920;-72
2022/03/26 06:00:24;;;;;;;;;;;2.00;99.90;;;;;;5103845;28;19927;-68
2022/03/26 06:02:51;;;;;;;;;;;1.90;99.90;;;;;;5104245;28;20100;-69
2022/03/26 06:05:18;;;;;;;;;;;1.90;99.90;;;;;;5102025;28;19920;-69
2022/03/26 06:07:45;;;;;;;;;;;1.90;99.90;;;;;;5101781;28;19920;-70
2022/03/26 06:10:11;;;;;;;;;;;2.00;99.90;;;;;;5103937;28;20222;-70
2022/03/26 06:12:38;;;;;;;;;;;2.00;99.90;;;;;;5103705;28;20211;-70
2022/03/26 06:15:05;;;;;;;;;;;2.00;99.90;;;;;;5102219;28;19923;-69
2022/03/26 06:17:31;;;;;;;;;;;2.00;99.90;;;;;;5101078;28;19920;-69
2022/03/26 06:19:59;;;;;;;;;;;2.10;99.90;;;;;;5103389;28;20283;-69
2022/03/26 06:22:27;;;;;;;;;;;2.10;99.90;;;;;;5103825;28;19924;-70
2022/03/26 06:24:54;;;;;;;;;;;2.20;99.90;;;;;;5103895;28;19920;-69
2022/03/26 06:27:26;;;;;;;;;;;2.20;99.90;;;;;;5100568;28;19920;-69
2022/03/26 06:29:53;;;;;;;;;;;2.20;99.90;;;;;;5104197;28;19920;-68
2022/03/26 06:32:19;;;;;;;;;;;2.30;99.90;;;;;;5101596;28;20182;-69
2022/03/26 06:34:46;;;;;;;;;;;2.30;99.90;;;;;;5103211;28;20223;-69
2022/03/26 06:37:14;;;;;;;;;;;2.30;99.90;;;;;;5102961;28;19926;-69
2022/03/26 06:39:41;;;;;;;;;;;2.30;99.90;;;;;;5105830;28;19946;-69
2022/03/26 06:42:08;;;;;;;;;;;2.40;99.90;;;;;;5124510;28;19920;-69
2022/03/26 06:44:34;;;;;;;;;;;2.40;99.90;;;;;;5124127;28;20118;-68
2022/03/26 06:47:01;;;;;;;;;;;2.50;99.90;;;;;;5119757;28;19920;-68
2022/03/26 06:49:30;;;;;;;;;;;2.60;99.90;;;;;;5103966;28;19924;-69
2022/03/26 06:51:59;;;;;;;;;;;2.70;99.90;;;;;;5106277;28;19986;-69
2022/03/26 06:54:27;;;;;;;;;;;2.70;99.90;;;;;;5121651;28;19926;-69
2022/03/26 06:56:54;;;;;;;;;;;2.80;99.90;;;;;;5103200;28;19991;-68
2022/03/26 06:59:22;;;;;;;;;;;2.90;99.90;;;;;;5103796;28;20071;-69
2022/03/26 07:01:48;;;;;;;;;;;3.00;99.90;;;;;;5083156;28;20124;-69
2022/03/26 07:04:15;;;;;;;;;;;3.10;99.90;;;;;;5083512;28;19928;-69
2022/03/26 07:06:42;;;;;;;;;;;3.20;99.90;;;;;;5100033;28;19928;-69
2022/03/26 07:09:09;;;;;;;;;;;3.30;99.90;;;;;;5103567;28;19982;-68
2022/03/26 07:11:37;;;;;;;;;;;3.40;99.90;;;;;;5103485;28;19963;-68
2022/03/26 07:14:04;;;;;;;;;;;3.60;99.90;;;;;;5103179;28;19949;-69
2022/03/26 07:16:31;;;;;;;;;;;3.70;99.90;;;;;;5102271;28;20120;-67
2022/03/26 07:18:57;;;;;;;;;;;3.80;99.90;;;;;;5102532;28;20130;-69
2022/03/26 07:21:24;;;;;;;;;;;3.90;99.90;;;;;;5103298;28;19920;-69
2022/03/26 07:23:51;;;;;;;;;;;4.00;99.90;;;;;;5103461;28;19920;-69
2022/03/26 07:26:18;;;;;;;;;;;4.20;99.90;;;;;;5102791;28;19924;-69
2022/03/26 07:28:49;;;;;;;;;;;4.30;99.90;;;;;;5101018;28;19987;-69
2022/03/26 07:31:16;;;;;;;;;;;4.50;99.90;;;;;;5097824;28;19920;-68
2022/03/26 07:33:43;;;;;;;;;;;4.60;99.90;;;;;;5102396;28;19942;-69
2022/03/26 07:36:09;;;;;;;;;;;4.70;99.90;;;;;;5099219;28;19928;-69
2022/03/26 07:38:36;;;;;;;;;;;4.80;99.90;;;;;;5101628;28;19927;-68
2022/03/26 07:41:03;;;;;;;;;;;5.00;99.90;;;;;;5102300;28;20111;-68
2022/03/26 07:43:30;;;;;;;;;;;5.20;99.90;;;;;;5102715;28;19951;-68
2022/03/26 07:45:58;;;;;;;;;;;5.40;99.90;;;;;;5103100;28;20069;-68
2022/03/26 07:48:25;;;;;;;;;;;5.70;99.90;;;;;;5106376;28;19955;-68
2022/03/26 07:50:51;;;;;;;;;;;5.90;99.90;;;;;;5106228;28;19927;-69
2022/03/26 07:53:18;;;;;;;;;;;6.20;99.90;;;;;;5104210;28;19920;-69
2022/03/26 07:55:45;;;;;;;;;;;6.30;99.90;;;;;;5099623;28;19920;-68
2022/03/26 07:58:12;;;;;;;;;;;6.50;99.90;;;;;;5105545;28;19956;-69
2022/03/26 08:00:38;;;;;;;;;;;6.70;99.90;;;;;;5105736;28;19920;-69
2022/03/26 08:03:06;;;;;;;;;;;6.90;99.90;;;;;;5105812;28;19926;-69
2022/03/26 08:05:33;;;;;;;;;;;7.00;99.90;;;;;;5102640;28;20004;-68
2022/03/26 08:08:00;;;;;;;;;;;7.30;99.90;;;;;;5088828;28;19966;-69
2022/03/26 08:10:26;;;;;;;;;;;7.60;99.90;;;;;;5105831;28;19987;-69
2022/03/26 08:12:53;;;;;;;;;;;7.70;99.90;;;;;;5105829;28;19947;-69
2022/03/26 08:15:20;;;;;;;;;;;7.90;99.90;;;;;;5105410;28;19987;-69
2022/03/26 08:17:47;;;;;;;;;;;8.10;99.90;;;;;;5104321;28;19983;-69
2022/03/26 08:20:15;;;;;;;;;;;8.30;99.90;;;;;;5106438;28;19935;-69
2022/03/26 08:22:42;;;;;;;;;;;8.40;99.90;;;;;;5105203;28;19924;-69
2022/03/26 08:25:10;;;;;;;;;;;8.50;99.90;;;;;;5105984;28;19928;-69
2022/03/26 08:27:36;;;;;;;;;;;8.60;99.90;;;;;;5105647;28;20089;-69
2022/03/26 08:30:03;;;;;;;;;;;8.70;99.90;;;;;;5105638;28;19920;-69
2022/03/26 08:32:30;;;;;;;;;;;8.80;99.90;;;;;;5106280;28;20124;-68
2022/03/26 08:34:57;;;;;;;;;;;8.90;99.90;;;;;;5104987;28;19920;-70
2022/03/26 08:37:25;;;;;;;;;;;9.00;99.90;;;;;;5104978;28;19921;-69
2022/03/26 08:39:51;;;;;;;;;;;9.10;99.90;;;;;;5104723;28;19939;-68
2022/03/26 08:42:18;;;;;;;;;;;9.10;99.90;;;;;;5105224;28;20255;-69
2022/03/26 08:44:45;;;;;;;;;;;9.20;99.90;;;;;;5104413;28;20097;-68
2022/03/26 08:47:11;;;;;;;;;;;9.30;99.90;;;;;;5104595;28;20097;-69
2022/03/26 08:49:38;;;;;;;;;;;9.40;99.90;;;;;;5105382;28;19926;-68
2022/03/26 08:52:04;;;;;;;;;;;9.40;99.90;;;;;;5104672;28;20237;-69
2022/03/26 08:54:32;;;;;;;;;;;9.50;99.90;;;;;;5105153;28;19920;-69
2022/03/26 08:57:01;;;;;;;;;;;9.60;99.90;;;;;;5103896;28;19920;-69
2022/03/26 08:59:27;;;;;;;;;;;9.70;99.90;;;;;;5105639;28;20184;-69
2022/03/26 09:01:54;;;;;;;;;;;9.80;99.90;;;;;;5105282;28;19924;-69
2022/03/26 09:04:20;;;;;;;;;;;9.90;99.90;;;;;;5109937;28;19942;-69
2022/03/26 09:06:48;;;;;;;;;;;10.10;99.90;;;;;;5104334;28;20150;-69
2022/03/26 09:09:16;;;;;;;;;;;10.20;99.90;;;;;;5106751;28;19920;-69
2022/03/26 09:11:44;;;;;;;;;;;10.40;99.50;;;;;;5104394;28;20206;-69
2022/03/26 09:14:11;;;;;;;;;;;10.40;99.50;;;;;;5118505;28;19926;-71
2022/03/26 09:16:38;;;;;;;;;;;10.50;99.60;;;;;;5124483;28;19993;-69
2022/03/26 09:19:05;;;;;;;;;;;10.60;99.90;;;;;;5114479;28;19920;-69
2022/03/26 09:21:33;;;;;;;;;;;10.70;99.90;;;;;;5102701;28;20204;-69
2022/03/26 09:24:00;;;;;;;;;;;10.80;98.40;;;;;;5106293;28;19926;-69
2022/03/26 09:26:26;;;;;;;;;;;11.00;99.00;;;;;;5120534;28;19920;-69
2022/03/26 09:28:54;;;;;;;;;;;11.10;99.10;;;;;;5108977;28;19924;-69
2022/03/26 09:31:21;;;;;;;;;;;11.20;98.20;;;;;;5102745;28;19995;-69
2022/03/26 09:33:48;;;;;;;;;;;11.20;98.10;;;;;;5104305;28;19920;-69
2022/03/26 09:36:14;;;;;;;;;;;11.40;97.20;;;;;;5103766;28;19920;-70
2022/03/26 09:38:41;;;;;;;;;;;11.60;97.20;;;;;;5104266;28;19920;-69
2022/03/26 09:41:10;;;;;;;;;;;11.60;96.10;;;;;;5104410;22;19927;-69
2022/03/26 09:43:38;;;;;;;;;;;11.80;96.70;;;;;;5069718;28;20114;-70
2022/03/26 09:46:07;;;;;;;;;;;12.00;95.80;;;;;;5097353;28;20261;-66
2022/03/26 09:48:33;;;;;;;;;;;12.00;95.30;;;;;;5104503;28;19942;-70
2022/03/26 09:51:02;;;;;;;;;;;12.20;94.60;;;;;;5098347;28;19928;-67
2022/03/26 09:53:30;;;;;;;;;;;12.30;95.10;;;;;;5082125;28;19920;-65
2022/03/26 09:55:57;;;;;;;;;;;12.40;93.70;;;;;;5084620;28;19921;-68
2022/03/26 09:58:24;;;;;;;;;;;12.50;92.20;;;;;;5097024;28;20287;-68
2022/03/26 10:00:53;;;;;;;;;;;12.60;91.30;;;;;;5100848;28;20092;-68
2022/03/26 10:03:21;;;;;;;;;;;12.60;90.50;;;;;;5095966;28;19958;-68
2022/03/26 10:05:47;;;;;;;;;;;12.70;91.30;;;;;;5084515;28;19920;-69
2022/03/26 10:08:17;;;;;;;;;;;12.80;88.80;;;;;;5093686;28;19921;-68
2022/03/26 10:10:45;;;;;;;;;;;12.90;89.80;;;;;;5084028;28;20115;-68
2022/03/26 10:13:11;;;;;;;;;;;13.00;90.60;;;;;;5085992;28;19920;-68
2022/03/26 10:15:38;;;;;;;;;;;13.10;91.10;;;;;;5090024;28;19928;-69
2022/03/26 10:18:12;;;;;;;;;;;13.20;91.10;;;;;;5094557;28;19927;-68
2022/03/26 10:20:40;;;;;;;;;;;13.30;91.10;;;;;;5099683;28;19927;-69
2022/03/26 10:23:07;;;;;;;;;;;13.30;89.90;;;;;;5104282;28;20203;-68
2022/03/26 10:25:33;;;;;;;;;;;13.40;90.00;;;;;;5101179;28;19928;-69
2022/03/26 10:28:00;;;;;;;;;;;13.50;85.70;;;;;;5086233;28;19920;-68
2022/03/26 10:33:18;;;;;;;;;;;13.70;85.50;;;;;;5086373;28;20215;-68
2022/03/26 10:35:52;;;;;;;;;;;13.90;84.60;;;;;;5083444;28;19920;-68
2022/03/26 10:38:19;;;;;;;;;;;14.10;83.90;;;;;;5086785;28;19930;-68
2022/03/26 10:40:45;;;;;;;;;;;14.10;84.50;;;;;;5080422;28;20204;-68
2022/03/26 10:43:12;;;;;;;;;;;14.20;82.40;;;;;;5083759;28;20085;-68
2022/03/26 10:45:47;;;;;;;;;;;14.30;82.30;;;;;;5101445;28;19931;-68
2022/03/26 10:48:14;;;;;;;;;;;14.30;81.60;;;;;;5104203;28;19920;-69
2022/03/26 10:50:46;;;;;;;;;;;14.40;79.70;;;;;;5086312;28;20587;-69
2022/03/26 10:53:15;;;;;;;;;;;14.50;77.50;;;;;;5083582;28;19928;-68
2022/03/26 10:55:43;;;;;;;;;;;14.70;75.70;;;;;;5094553;28;20112;-69
2022/03/26 10:58:10;;;;;;;;;;;14.80;77.70;;;;;;5092548;28;19965;-69
2022/03/26 11:00:37;;;;;;;;;;;15.00;78.00;;;;;;5082826;28;19921;-69
2022/03/26 11:03:04;;;;;;;;;;;15.10;77.50;;;;;;5083311;28;19920;-68
2022/03/26 11:05:31;;;;;;;;;;;15.10;78.20;;;;;;5082312;28;19943;-69
2022/03/26 11:07:58;;;;;;;;;;;15.20;79.00;;;;;;5083081;28;19966;-68
2022/03/26 11:10:27;;;;;;;;;;;15.20;81.60;;;;;;5082805;28;19938;-68
2022/03/26 11:12:53;;;;;;;;;;;15.30;80.10;;;;;;5082762;28;19927;-69
2022/03/26 11:15:24;;;;;;;;;;;15.50;79.80;;;;;;5102491;28;20215;-68
2022/03/26 11:18:15;;;;;;;;;;;15.60;79.50;;;;;;5103211;28;20003;-68
2022/03/26 11:21:05;;;;;;;;;;;15.70;79.10;;;;;;5090880;28;19995;-68
2022/03/26 11:23:36;;;;;;;;;;;15.70;77.20;;;;;;5063465;28;19929;-67
2022/03/26 11:26:11;;;;;;;;;;;15.80;76.80;;;;;;5098425;28;20120;-67
2022/03/26 11:28:51;;;;;;;;;;;15.90;79.10;;;;;;5087317;28;19920;-68
2022/03/26 11:31:27;;;;;;;;;;;16.10;77.40;;;;;;5080810;28;19920;-68
2022/03/26 11:34:01;;;;;;;;;;;16.30;77.10;;;;;;5107786;28;19926;-68
2022/03/26 11:36:28;;;;;;;;;;;16.50;74.90;;;;;;5098574;28;19920;-68
2022/03/26 11:38:56;;;;;;;;;;;16.50;72.70;;;;;;5103881;28;19920;-68
2022/03/26 11:41:32;;;;;;;;;;;16.60;73.80;;;;;;5106896;28;19920;-68
2022/03/26 11:44:01;;;;;;;;;;;16.70;76.50;;;;;;5089760;28;19920;-68
2022/03/26 11:52:15;;;;;;;;;;;16.80;69.10;;;;;;5093362;28;19962;-68
2022/03/26 11:54:42;;;;;;;;;;;17.00;72.90;;;;;;5098495;28;19927;-67
2022/03/26 11:57:15;;;;;;;;;;;17.00;71.80;;;;;;5085740;28;19920;-68
2022/03/26 11:59:42;;;;;;;;;;;17.00;71.00;;;;;;5086608;28;19920;-68
2022/03/26 12:02:16;;;;;;;;;;;16.90;70.00;;;;;;5100978;28;19920;-68
2022/03/26 12:04:47;;;;;;;;;;;17.10;72.10;;;;;;5107056;28;19920;-67
2022/03/26 12:07:14;;;;;;;;;;;17.00;70.90;;;;;;5098573;28;19920;-68
2022/03/26 12:09:41;;;;;;;;;;;17.10;71.00;;;;;;5106872;28;20145;-68
2022/03/26 12:12:19;;;;;;;;;;;17.20;71.00;;;;;;5100220;28;20146;-68
2022/03/26 12:15:05;;;;;;;;;;;17.30;68.60;;;;;;5092323;28;20036;-68
2022/03/26 12:17:44;;;;;;;;;;;17.20;68.40;;;;;;5103699;28;19955;-68
2022/03/26 12:20:24;;;;;;;;;;;17.30;69.10;;;;;;5103266;28;19935;-68
2022/03/26 12:22:52;;;;;;;;;;;17.30;69.50;;;;;;5086970;28;20234;-68
2022/03/26 12:25:31;;;;;;;;;;;17.50;69.10;;;;;;5088178;28;19920;-68
2022/03/26 12:28:00;;;;;;;;;;;17.60;70.40;;;;;;5085861;28;19921;-68
2022/03/26 12:30:26;;;;;;;;;;;17.80;68.80;;;;;;5088772;28;19921;-68
2022/03/26 12:32:53;;;;;;;;;;;17.90;65.90;;;;;;5085319;28;19943;-68
2022/03/26 12:35:19;;;;;;;;;;;18.10;67.60;;;;;;5085339;28;19921;-68
2022/03/26 12:37:49;;;;;;;;;;;18.30;69.30;;;;;;5106400;28;20115;-68
2022/03/26 12:40:16;;;;;;;;;;;18.40;66.70;;;;;;5105987;28;19920;-68
2022/03/26 12:42:43;;;;;;;;;;;18.60;67.20;;;;;;5102755;28;19924;-67
2022/03/26 12:45:16;;;;;;;;;;;18.60;65.10;;;;;;5079253;28;20130;-68
2022/03/26 12:47:46;;;;;;;;;;;18.70;65.20;;;;;;5088182;28;19980;-68
2022/03/26 12:50:13;;;;;;;;;;;18.70;66.00;;;;;;5085268;28;19963;-68
2022/03/26 12:52:39;;;;;;;;;;;18.60;66.70;;;;;;5086341;28;19920;-68
2022/03/26 12:55:07;;;;;;;;;;;18.70;66.60;;;;;;5086691;28;19942;-68
2022/03/26 13:00:21;;;;;;;;;;;18.90;67.70;;;;;;5083507;28;20068;-68
2022/03/26 13:02:48;;;;;;;;;;;18.90;66.90;;;;;;5070991;28;19943;-68
2022/03/26 13:05:14;;;;;;;;;;;18.90;68.50;;;;;;5096040;28;19924;-67
2022/03/26 13:07:41;;;;;;;;;;;19.00;66.80;;;;;;5094822;28;19924;-67
2022/03/26 13:10:09;;;;;;;;;;;19.10;67.00;;;;;;5084638;28;20159;-68
2022/03/26 13:12:35;;;;;;;;;;;19.20;64.20;;;;;;5080025;28;19920;-68
2022/03/26 13:15:02;;;;;;;;;;;19.40;62.20;;;;;;5092780;28;19926;-67
2022/03/26 13:17:30;;;;;;;;;;;19.50;60.00;;;;;;5090854;28;19920;-68
2022/03/26 13:19:57;;;;;;;;;;;19.50;60.90;;;;;;5084859;28;19927;-68
2022/03/26 13:22:26;;;;;;;;;;;19.70;62.10;;;;;;5090101;28;19983;-67
2022/03/26 13:24:53;;;;;;;;;;;19.70;61.90;;;;;;5084621;28;19920;-69
2022/03/26 13:27:20;;;;;;;;;;;19.70;63.90;;;;;;5078831;28;20211;-68
2022/03/26 13:29:47;;;;;;;;;;;19.70;63.30;;;;;;5102448;28;20111;-69
2022/03/26 13:32:15;;;;;;;;;;;19.70;62.80;;;;;;5101256;28;19920;-68
2022/03/26 13:34:46;;;;;;;;;;;19.80;63.70;;;;;;5095197;28;20102;-69
2022/03/26 13:37:15;;;;;;;;;;;19.80;58.90;;;;;;5075103;28;19920;-70
2022/03/26 13:39:44;;;;;;;;;;;19.70;58.80;;;;;;5067971;28;19974;-68
2022/03/26 13:42:14;;;;;;;;;;;19.60;59.00;;;;;;5081529;28;19950;-68
2022/03/26 13:44:41;;;;;;;;;;;19.60;62.40;;;;;;5094879;28;19928;-68
2022/03/26 13:47:08;;;;;;;;;;;19.60;60.40;;;;;;5086562;28;19967;-68
2022/03/26 13:49:36;;;;;;;;;;;19.60;63.00;;;;;;5077970;28;19929;-68
2022/03/26 13:52:22;;;;;;;;;;;19.70;63.20;;;;;;5071928;28;19929;-68
2022/03/26 13:54:49;;;;;;;;;;;19.70;64.70;;;;;;5074616;28;19928;-68
2022/03/26 13:57:16;;;;;;;;;;;19.80;62.70;;;;;;5082852;28;19924;-69
2022/03/26 13:59:43;;;;;;;;;;;19.80;62.10;;;;;;5086531;28;19920;-68
2022/03/26 14:02:13;;;;;;;;;;;20.00;59.40;;;;;;5084008;28;19935;-68
2022/03/26 14:04:40;;;;;;;;;;;20.00;60.10;;;;;;5089032;28;19928;-68
2022/03/26 14:07:07;;;;;;;;;;;20.10;59.90;;;;;;5095541;28;19920;-68
2022/03/26 14:09:35;;;;;;;;;;;20.20;61.10;;;;;;5081019;28;19966;-68
2022/03/26 14:12:03;;;;;;;;;;;20.30;59.30;;;;;;5076592;28;19932;-68
2022/03/26 14:14:29;;;;;;;;;;;20.30;59.20;;;;;;5088953;28;19920;-69
2022/03/26 14:16:56;;;;;;;;;;;20.40;59.00;;;;;;5096185;28;19928;-68
2022/03/26 14:19:23;;;;;;;;;;;20.30;58.10;;;;;;5103931;28;19920;-69
2022/03/26 14:21:49;;;;;;;;;;;20.40;59.30;;;;;;5096537;28;19950;-68
2022/03/26 14:24:16;;;;;;;;;;;20.10;59.80;;;;;;5083254;28;19928;-69
2022/03/26 14:26:44;;;;;;;;;;;20.20;60.50;;;;;;5082970;28;19932;-68
2022/03/26 14:29:11;;;;;;;;;;;20.30;59.30;;;;;;5102400;28;19946;-69
2022/03/26 14:31:38;;;;;;;;;;;20.50;60.50;;;;;;5069660;28;20220;-69
2022/03/26 14:34:05;;;;;;;;;;;20.60;59.00;;;;;;5093683;28;19935;-68
2022/03/26 14:36:33;;;;;;;;;;;20.50;59.40;;;;;;5089073;28;19927;-68
2022/03/26 14:38:59;;;;;;;;;;;20.40;59.10;;;;;;5085747;28;19928;-69
2022/03/26 14:41:26;;;;;;;;;;;20.60;59.50;;;;;;5083148;28;19920;-68